Time;durP1;ratioP1;P1;durP2;ratioP2;P2;SDS_P1;SDS_P2;PMS_P1;PMS_P2;Temp;Humidity;BMP_temperature;BMP_pressure;BME280_temperature;BME280_humidity;BME280_pressure;Samples;Min_cycle;Max_cycle;Signal;HPM_P1;HPM_P2
2021/09/03 00:00:22;;;;;;;8.60;5.10;;;;;;;18.81;35.31;98369.94;5016651;28;20052;-72
2021/09/03 00:02:49;;;;;;;4.57;2.03;;;;;;;18.60;35.40;98358.00;5049246;28;20417;-71
2021/09/03 00:05:21;;;;;;;4.28;2.30;;;;;;;18.97;35.33;98361.91;5032918;28;20048;-71
2021/09/03 00:07:48;;;;;;;3.72;1.95;;;;;;;18.62;35.59;98360.44;5032704;28;20080;-71
2021/09/03 00:10:16;;;;;;;3.97;1.90;;;;;;;18.76;35.86;98359.09;5049518;28;20048;-71
2021/09/03 00:12:43;;;;;;;5.55;1.60;;;;;;;18.61;35.59;98353.41;5032987;28;20080;-71
2021/09/03 00:15:12;;;;;;;4.72;1.80;;;;;;;18.45;36.17;98345.06;5032798;28;20097;-71
2021/09/03 00:17:38;;;;;;;3.70;1.90;;;;;;;18.32;36.23;98349.88;5032714;28;20049;-71
2021/09/03 00:20:06;;;;;;;3.83;2.40;;;;;;;18.57;36.18;98341.53;5016406;28;20182;-71
2021/09/03 00:22:33;;;;;;;5.63;1.83;;;;;;;18.30;36.02;98343.91;5016406;28;20095;-71
2021/09/03 00:24:59;;;;;;;4.03;1.52;;;;;;;18.30;36.29;98347.44;5019993;28;20555;-72
2021/09/03 00:27:26;;;;;;;2.85;1.98;;;;;;;18.32;36.16;98348.00;5019792;28;20065;-71
2021/09/03 00:29:52;;;;;;;3.83;1.88;;;;;;;18.32;36.20;98344.50;5036250;28;20394;-70
2021/09/03 00:32:18;;;;;;;6.03;2.10;;;;;;;18.32;36.31;98342.63;5020131;28;20095;-70
2021/09/03 00:34:44;;;;;;;7.43;3.78;;;;;;;18.34;36.35;98345.09;5020023;28;20060;-70
2021/09/03 00:37:10;;;;;;;3.85;3.10;;;;;;;18.28;36.21;98338.78;5036597;28;20052;-70
2021/09/03 00:39:37;;;;;;;2.78;2.10;;;;;;;18.28;36.18;98346.03;5036214;28;20040;-70
2021/09/03 00:42:13;;;;;;;5.22;2.03;;;;;;;18.68;35.87;98337.97;5019653;28;20084;-71
2021/09/03 00:44:39;;;;;;;4.57;2.13;;;;;;;18.23;36.20;98335.19;5019605;28;20055;-70
2021/09/03 00:47:05;;;;;;;9.38;2.63;;;;;;;18.34;36.00;98331.66;5036062;28;20057;-70
2021/09/03 00:49:32;;;;;;;2.75;1.92;;;;;;;18.35;35.91;98328.72;5019586;28;20053;-70
2021/09/03 00:52:00;;;;;;;3.03;1.98;;;;;;;18.49;35.78;98334.66;5019550;28;20048;-70
2021/09/03 00:54:26;;;;;;;3.03;2.03;;;;;;;18.24;35.95;98340.31;5035874;28;20427;-70
2021/09/03 00:56:52;;;;;;;5.40;2.47;;;;;;;18.19;35.88;98334.00;5035908;28;20484;-70
2021/09/03 00:59:18;;;;;;;2.97;1.80;;;;;;;18.07;36.11;98322.47;5035797;28;20412;-70
2021/09/03 01:01:45;;;;;;;2.97;1.80;;;;;;;18.11;36.12;98320.97;5036036;28;20539;-71
2021/09/03 01:04:11;;;;;;;2.80;1.70;;;;;;;18.14;36.04;98325.88;5019644;28;20130;-72
2021/09/03 01:06:38;;;;;;;4.53;1.90;;;;;;;18.14;35.92;98317.81;5035795;28;20049;-72
2021/09/03 01:09:04;;;;;;;4.78;1.42;;;;;;;17.89;36.21;98304.66;5019413;28;20118;-72
2021/09/03 01:11:30;;;;;;;6.15;1.70;;;;;;;17.97;36.21;98306.16;5019377;28;20418;-72
2021/09/03 01:14:05;;;;;;;3.08;1.70;;;;;;;17.92;36.32;98306.88;5037105;28;20052;-72
2021/09/03 01:16:31;;;;;;;6.20;2.00;;;;;;;17.83;36.31;98285.97;5019350;28;20127;-72
2021/09/03 01:18:58;;;;;;;7.55;2.10;;;;;;;18.00;36.36;98297.63;5018919;28;20055;-72
2021/09/03 01:21:25;;;;;;;2.67;1.70;;;;;;;17.89;36.35;98293.09;5019328;28;20052;-71
2021/09/03 01:23:51;;;;;;;5.28;1.67;;;;;;;17.83;36.36;98292.19;5035453;28;20126;-71
2021/09/03 01:26:17;;;;;;;2.65;1.70;;;;;;;17.82;36.21;98292.41;5019022;28;20057;-70
2021/09/03 01:28:46;;;;;;;3.28;1.58;;;;;;;18.01;36.11;98281.28;5019235;28;20127;-72
2021/09/03 01:31:14;;;;;;;3.10;1.63;;;;;;;17.76;36.44;98285.31;5019474;28;20508;-72
2021/09/03 01:33:40;;;;;;;2.88;1.88;;;;;;;17.67;36.60;98276.78;5018564;28;20056;-71
2021/09/03 01:36:15;;;;;;;6.18;1.60;;;;;;;17.63;36.66;98280.19;5037028;28;20041;-71
2021/09/03 01:38:43;;;;;;;1.50;1.40;;;;;;;17.59;36.74;98281.72;5019007;28;20044;-71
2021/09/03 01:41:09;;;;;;;5.28;1.55;;;;;;;17.54;36.76;98281.59;5018873;28;20049;-71
2021/09/03 01:43:35;;;;;;;1.85;1.67;;;;;;;17.36;37.12;98279.00;5018629;28;20561;-70
2021/09/03 01:46:01;;;;;;;2.67;1.75;;;;;;;17.42;37.26;98286.13;5035069;28;20527;-70
2021/09/03 01:48:27;;;;;;;4.28;2.10;;;;;;;17.43;37.31;98282.38;5035155;28;20147;-71
2021/09/03 01:50:54;;;;;;;2.47;1.80;;;;;;;17.40;37.25;98281.00;5034994;28;20429;-71
2021/09/03 01:53:19;;;;;;;2.90;1.70;;;;;;;17.32;37.46;98281.34;5018414;28;20048;-71
2021/09/03 01:55:45;;;;;;;5.00;2.40;;;;;;;17.39;37.42;98278.53;5018738;28;20052;-71
2021/09/03 01:58:12;;;;;;;3.70;2.03;;;;;;;17.33;37.50;98274.13;5018419;28;20041;-71
2021/09/03 02:00:38;;;;;;;4.22;1.90;;;;;;;17.34;37.37;98271.19;5034710;28;20064;-71
2021/09/03 02:03:04;;;;;;;4.68;1.67;;;;;;;17.33;37.33;98264.19;5018338;28;20459;-70
2021/09/03 02:05:30;;;;;;;4.40;1.85;;;;;;;17.32;37.26;98245.63;5034682;28;20049;-72
2021/09/03 02:08:05;;;;;;;2.05;1.67;;;;;;;17.36;37.28;98279.00;5034480;28;20067;-71
2021/09/03 02:10:31;;;;;;;7.47;2.75;;;;;;;17.30;37.28;98271.91;5018210;28;20509;-71
2021/09/03 02:12:58;;;;;;;5.45;1.90;;;;;;;17.19;37.52;98273.50;5034421;28;20459;-71
2021/09/03 02:15:24;;;;;;;5.35;1.90;;;;;;;17.21;37.46;98257.19;5034403;28;20041;-71
2021/09/03 02:17:53;;;;;;;5.38;1.98;;;;;;;17.32;37.29;98261.72;5018350;28;20064;-72
2021/09/03 02:20:22;;;;;;;4.97;2.10;;;;;;;17.30;37.37;98266.53;5019223;28;20106;-71
2021/09/03 02:22:48;;;;;;;8.57;2.92;;;;;;;17.20;37.34;98268.97;5034365;28;20049;-71
2021/09/03 02:25:14;;;;;;;3.38;1.75;;;;;;;17.17;37.70;98261.38;5034166;28;20048;-71
2021/09/03 02:27:40;;;;;;;2.97;1.80;;;;;;;17.18;37.42;98260.31;5017625;28;20974;-71
2021/09/03 02:30:07;;;;;;;5.15;2.10;;;;;;;17.35;37.40;98251.34;5017627;28;20045;-71
2021/09/03 02:32:33;;;;;;;3.33;1.88;;;;;;;17.12;37.56;98251.34;5034117;28;20095;-70
2021/09/03 02:34:59;;;;;;;3.58;1.95;;;;;;;17.19;37.36;98252.03;5033880;28;20056;-70
2021/09/03 02:37:25;;;;;;;4.05;1.92;;;;;;;17.14;37.60;98243.06;5017733;28;20048;-69
2021/09/03 02:39:51;;;;;;;6.55;2.10;;;;;;;17.20;37.59;98242.13;5017732;28;20462;-70
2021/09/03 02:42:18;;;;;;;2.83;1.90;;;;;;;17.14;37.66;98238.53;5017632;28;20052;-70
2021/09/03 02:44:44;;;;;;;4.15;2.13;;;;;;;17.14;37.74;98245.75;5033753;28;20098;-72
2021/09/03 02:47:10;;;;;;;4.00;1.88;;;;;;;17.06;37.84;98238.88;5016781;28;20127;-71
2021/09/03 02:49:38;;;;;;;2.35;2.00;;;;;;;17.03;37.63;98233.16;5033545;28;20049;-71
2021/09/03 02:52:05;;;;;;;6.57;1.90;;;;;;;17.03;37.82;98236.66;5050030;28;20037;-70
2021/09/03 02:54:33;;;;;;;5.88;2.22;;;;;;;16.97;38.14;98234.09;5033967;28;20044;-71
2021/09/03 02:57:00;;;;;;;3.05;1.98;;;;;;;16.96;38.07;98235.16;5033525;28;20500;-71
2021/09/03 02:59:26;;;;;;;3.78;2.10;;;;;;;16.98;38.05;98230.34;5033535;28;20182;-71
2021/09/03 03:01:52;;;;;;;8.27;2.25;;;;;;;16.93;38.28;98233.72;5017210;28;20095;-71
2021/09/03 03:04:18;;;;;;;3.95;2.15;;;;;;;16.94;37.99;98223.81;5017296;28;20075;-70
2021/09/03 03:06:44;;;;;;;4.13;2.58;;;;;;;16.92;38.00;98216.00;5033194;28;20127;-71
2021/09/03 03:09:10;;;;;;;3.80;2.00;;;;;;;16.92;38.02;98221.38;5016901;28;20049;-71
2021/09/03 03:11:36;;;;;;;6.88;2.00;;;;;;;16.99;38.23;98223.94;5016907;28;20090;-71
2021/09/03 03:14:08;;;;;;;3.90;2.22;;;;;;;16.88;37.80;98231.75;5016840;28;20049;-70
2021/09/03 03:16:35;;;;;;;2.35;1.95;;;;;;;16.97;38.03;98221.50;5034319;28;20048;-72
2021/09/03 03:19:01;;;;;;;4.78;2.35;;;;;;;16.97;37.89;98215.31;5033174;28;20045;-72
2021/09/03 03:21:32;;;;;;;4.40;2.10;;;;;;;16.98;37.91;98220.44;5033885;28;20047;-72
2021/09/03 03:23:58;;;;;;;7.20;2.40;;;;;;;16.87;38.02;98209.72;5033115;28;20071;-72
2021/09/03 03:26:28;;;;;;;11.35;2.25;;;;;;;16.90;38.32;98214.63;5016517;28;20102;-72
2021/09/03 03:28:54;;;;;;;4.73;2.10;;;;;;;16.85;38.12;98200.03;5033198;28;20041;-72
2021/09/03 03:31:21;;;;;;;5.00;2.40;;;;;;;16.82;38.35;98208.53;5033406;28;20045;-73
2021/09/03 03:33:48;;;;;;;5.63;2.53;;;;;;;16.89;38.24;98197.72;5016838;28;20048;-72
2021/09/03 03:36:14;;;;;;;7.55;2.88;;;;;;;16.98;38.35;98195.47;5032798;28;20049;-72
2021/09/03 03:38:40;;;;;;;5.47;2.83;;;;;;;16.96;38.08;98186.88;5033006;28;20056;-71
2021/09/03 03:41:06;;;;;;;8.50;3.30;;;;;;;17.03;37.94;98182.19;5016515;28;20138;-71
2021/09/03 03:43:32;;;;;;;8.13;3.20;;;;;;;17.08;37.98;98185.00;5032931;28;20198;-71
2021/09/03 03:45:58;;;;;;;6.60;3.83;;;;;;;16.96;38.13;98178.81;5016439;28;20135;-70
2021/09/03 03:48:26;;;;;;;7.88;3.40;;;;;;;16.98;38.22;98172.16;5016894;28;20530;-71
2021/09/03 03:50:52;;;;;;;8.50;3.28;;;;;;;16.92;38.17;98169.59;5033374;28;20071;-72
2021/09/03 03:53:18;;;;;;;10.23;3.67;;;;;;;16.75;38.69;98170.31;5024538;28;20064;-68
2021/09/03 03:55:44;;;;;;;7.10;3.33;;;;;;;17.03;38.90;98166.09;5032648;28;20041;-65
2021/09/03 03:58:10;;;;;;;6.25;2.95;;;;;;;16.98;38.76;98161.44;5053846;28;20044;-66
2021/09/03 04:00:36;;;;;;;5.00;3.55;;;;;;;17.04;38.47;98140.91;5055890;28;20052;-65
2021/09/03 04:03:02;;;;;;;5.45;2.80;;;;;;;17.24;37.92;98154.75;5054903;28;20052;-65
2021/09/03 04:05:28;;;;;;;5.15;3.15;;;;;;;17.36;37.86;98150.19;5072671;28;20045;-66
2021/09/03 04:07:54;;;;;;;4.55;3.25;;;;;;;17.27;38.08;98152.41;5056178;28;20044;-70
2021/09/03 04:10:22;;;;;;;4.90;3.08;;;;;;;17.63;37.96;98157.50;5055808;28;20492;-72
2021/09/03 04:12:49;;;;;;;4.72;3.13;;;;;;;18.09;37.16;98135.00;5039088;28;20056;-65
2021/09/03 04:15:16;;;;;;;7.88;3.03;;;;;;;18.33;36.85;98147.22;5072288;28;20209;-65
2021/09/03 04:17:41;;;;;;;3.75;2.67;;;;;;;18.36;36.94;98144.03;5055475;28;20040;-65
2021/09/03 04:20:08;;;;;;;5.65;2.80;;;;;;;18.52;37.03;98139.75;5055484;28;20055;-66
2021/09/03 04:22:35;;;;;;;6.22;2.33;;;;;;;18.82;36.30;98135.66;5072936;28;20044;-66
2021/09/03 04:25:01;;;;;;;6.88;2.50;;;;;;;18.89;36.04;98135.50;5071710;28;20090;-65
2021/09/03 04:27:27;;;;;;;5.60;2.47;;;;;;;18.95;36.01;98124.56;5021946;28;20513;-66
2021/09/03 04:29:53;;;;;;;3.88;1.90;;;;;;;18.95;35.23;98126.44;5055230;28;20455;-67
2021/09/03 04:32:19;;;;;;;4.03;2.03;;;;;;;19.01;35.46;98131.66;5038609;28;20040;-67
2021/09/03 04:34:45;;;;;;;10.95;2.25;;;;;;;19.18;35.15;98127.03;5071650;28;20125;-66
2021/09/03 04:37:12;;;;;;;4.68;2.25;;;;;;;19.12;35.13;98124.53;5038853;28;20534;-66
2021/09/03 04:39:39;;;;;;;4.90;2.08;;;;;;;18.93;34.59;98124.00;5038702;28;20118;-66
2021/09/03 04:42:05;;;;;;;6.03;2.38;;;;;;;18.83;35.50;98104.22;5071829;28;20095;-66
2021/09/03 04:44:33;;;;;;;4.10;1.92;;;;;;;18.97;35.52;98106.31;5071423;28;20113;-65
2021/09/03 04:46:59;;;;;;;2.13;1.77;;;;;;;18.85;35.84;98097.50;5071392;28;20040;-66
2021/09/03 04:49:25;;;;;;;3.75;1.90;;;;;;;19.10;35.64;98091.66;5088582;28;20048;-65
2021/09/03 04:51:50;;;;;;;2.03;1.50;;;;;;;18.81;35.08;98096.38;5038224;28;20047;-66
2021/09/03 04:54:16;;;;;;;6.25;1.98;;;;;;;19.08;36.09;98096.50;5071465;28;20575;-66
2021/09/03 04:56:43;;;;;;;4.63;1.50;;;;;;;18.95;35.71;98094.16;5054503;28;20101;-65
2021/09/03 04:59:08;;;;;;;3.95;1.55;;;;;;;19.02;35.45;98087.53;5037865;28;20415;-66
2021/09/03 05:01:34;;;;;;;4.10;1.65;;;;;;;19.13;35.16;98093.84;5053119;28;20049;-65
2021/09/03 05:04:00;;;;;;;2.53;1.50;;;;;;;19.25;34.76;98078.41;5052304;28;20040;-67
2021/09/03 05:06:26;;;;;;;10.55;1.88;;;;;;;19.04;34.77;98098.03;5069642;28;20098;-66
2021/09/03 05:08:52;;;;;;;4.13;1.95;;;;;;;19.13;34.93;98093.84;5051616;28;20042;-65
2021/09/03 05:11:18;;;;;;;5.20;1.98;;;;;;;19.31;34.72;98091.69;5069291;28;20134;-66
2021/09/03 05:13:44;;;;;;;1.45;1.35;;;;;;;19.42;34.29;98095.34;5053840;28;20131;-65
2021/09/03 05:16:10;;;;;;;2.17;1.67;;;;;;;19.33;34.24;98086.06;5037958;28;20052;-65
2021/09/03 05:18:36;;;;;;;6.00;1.75;;;;;;;19.41;34.24;98085.63;5071415;28;20127;-65
2021/09/03 05:21:02;;;;;;;2.22;1.20;;;;;;;19.51;34.02;98083.06;5037855;28;20045;-66
2021/09/03 05:23:28;;;;;;;5.28;1.58;;;;;;;19.27;34.48;98087.03;5054725;28;20053;-65
2021/09/03 05:25:54;;;;;;;4.88;1.88;;;;;;;19.45;34.47;98074.09;5038050;28;20044;-66
2021/09/03 05:28:20;;;;;;;5.13;1.80;;;;;;;19.55;34.29;98074.22;5037867;28;20047;-66
2021/09/03 05:30:46;;;;;;;2.90;1.77;;;;;;;19.68;34.48;98075.72;5053379;28;20043;-72
2021/09/03 05:33:12;;;;;;;7.45;1.90;;;;;;;19.72;34.27;98072.25;5037483;28;20044;-70
2021/09/03 05:35:38;;;;;;;4.00;1.63;;;;;;;19.74;33.98;98061.22;5035903;28;20059;-70
2021/09/03 05:38:04;;;;;;;3.65;1.73;;;;;;;19.75;34.26;98068.22;5035329;28;20047;-71
2021/09/03 05:40:32;;;;;;;2.08;1.60;;;;;;;19.97;33.81;98069.78;5052295;28;20087;-71
2021/09/03 05:42:58;;;;;;;3.75;2.40;;;;;;;19.56;34.60;98054.28;5051774;28;20048;-71
2021/09/03 05:45:24;;;;;;;3.58;1.45;;;;;;;19.87;33.93;98063.50;5019270;28;20044;-71
2021/09/03 05:47:50;;;;;;;2.47;1.30;;;;;;;19.88;33.53;98060.53;5035916;28;20040;-71
2021/09/03 05:50:16;;;;;;;3.60;1.52;;;;;;;20.04;33.59;98050.72;5037784;28;20370;-71
2021/09/03 05:52:42;;;;;;;2.92;1.42;;;;;;;19.94;33.64;98037.16;5054559;28;20119;-71
2021/09/03 05:55:09;;;;;;;2.88;0.80;;;;;;;20.26;33.23;98042.56;5037709;28;20467;-71
2021/09/03 05:57:35;;;;;;;3.35;1.25;;;;;;;19.83;33.86;98036.22;5037739;28;20033;-70
2021/09/03 06:00:01;;;;;;;5.03;1.20;;;;;;;20.20;33.07;98039.03;5037851;28;20051;-71
2021/09/03 06:02:30;;;;;;;1.98;1.40;;;;;;;20.53;32.88;98033.31;5038267;28;20074;-71
2021/09/03 06:04:55;;;;;;;1.85;1.23;;;;;;;20.78;32.85;98032.66;5054420;28;20115;-71
2021/09/03 06:07:22;;;;;;;1.25;1.08;;;;;;;21.24;31.91;98039.91;5037727;28;20039;-70
2021/09/03 06:09:48;;;;;;;7.97;1.35;;;;;;;21.38;31.49;98022.13;5037562;28;20974;-71
2021/09/03 06:12:14;;;;;;;2.13;1.20;;;;;;;21.70;31.67;98003.81;5037603;28;20037;-70
2021/09/03 06:14:40;;;;;;;4.43;1.20;;;;;;;21.92;31.03;98015.25;5037106;28;20037;-70
2021/09/03 06:17:06;;;;;;;3.33;1.23;;;;;;;22.00;30.95;98014.72;5037212;28;20074;-71
2021/09/03 06:19:32;;;;;;;2.10;1.20;;;;;;;22.05;30.43;98009.28;5037308;28;20041;-71
2021/09/03 06:22:00;;;;;;;3.20;1.30;;;;;;;22.31;29.60;97993.88;5053991;28;20043;-71
2021/09/03 06:24:28;;;;;;;5.95;1.17;;;;;;;22.37;30.12;97990.84;5037806;28;20043;-71
2021/09/03 06:26:55;;;;;;;2.83;1.15;;;;;;;22.42;29.96;97988.16;5070320;28;20395;-70
2021/09/03 06:29:37;;;;;;;1.58;1.00;;;;;;;21.96;30.10;97981.16;5070435;28;20028;-71
2021/09/03 06:32:07;;;;;;;4.10;0.93;;;;;;;21.76;30.48;97981.16;5041437;28;20032;-71
2021/09/03 06:34:34;;;;;;;2.58;0.80;;;;;;;21.78;29.69;97979.00;5053545;28;20040;-71
2021/09/03 06:37:00;;;;;;;1.58;1.00;;;;;;;21.26;30.66;97983.75;5036582;28;20459;-71
2021/09/03 06:39:26;;;;;;;4.35;1.00;;;;;;;21.56;30.17;97976.53;5037354;28;20444;-71
2021/09/03 06:41:52;;;;;;;5.50;0.98;;;;;;;21.03;30.97;97960.75;5036659;28;20032;-70
2021/09/03 06:44:18;;;;;;;2.20;1.00;;;;;;;21.35;31.65;97955.97;5053597;28;20154;-70
2021/09/03 06:46:44;;;;;;;1.30;0.90;;;;;;;21.82;30.24;97958.47;5036681;28;20126;-71
2021/09/03 06:49:10;;;;;;;3.20;1.10;;;;;;;21.92;30.41;97941.44;5036900;28;20484;-71
2021/09/03 06:51:36;;;;;;;2.60;1.52;;;;;;;21.73;30.46;97922.22;5036753;28;20047;-71
2021/09/03 06:54:02;;;;;;;2.08;1.35;;;;;;;21.67;30.13;97934.13;5020001;28;20051;-71
2021/09/03 06:56:28;;;;;;;2.60;0.90;;;;;;;21.96;30.33;97931.72;5036636;28;20044;-65
2021/09/03 06:58:53;;;;;;;1.83;0.82;;;;;;;22.40;29.18;97917.28;5036296;28;20032;-66
2021/09/03 07:01:20;;;;;;;3.78;1.00;;;;;;;22.56;29.08;97915.34;5053177;28;20040;-66
2021/09/03 07:03:46;;;;;;;3.17;0.90;;;;;;;22.46;29.63;97909.97;5003700;28;20047;-65
2021/09/03 07:06:12;;;;;;;1.75;0.90;;;;;;;22.33;28.89;97908.66;5036445;28;20512;-66
2021/09/03 07:08:38;;;;;;;5.57;1.00;;;;;;;22.07;28.86;97890.88;5052849;28;20029;-66
2021/09/03 07:11:04;;;;;;;1.65;0.73;;;;;;;22.69;28.36;97899.38;5019041;28;20392;-65
2021/09/03 07:13:30;;;;;;;4.85;1.00;;;;;;;23.22;28.24;97903.13;5053045;28;20055;-66
2021/09/03 07:15:56;;;;;;;2.17;0.80;;;;;;;23.69;27.96;97894.41;5036617;28;20040;-66
2021/09/03 07:18:22;;;;;;;2.47;1.00;;;;;;;23.07;27.75;97909.44;5036394;28;20033;-66
2021/09/03 07:20:49;;;;;;;3.15;1.15;;;;;;;24.04;27.38;97897.63;5035653;28;20060;-66
2021/09/03 07:23:14;;;;;;;1.63;0.90;;;;;;;23.88;26.35;97887.19;5035790;28;20051;-67
2021/09/03 07:25:40;;;;;;;4.68;0.80;;;;;;;23.44;26.96;97881.88;5019708;28;20472;-67
2021/09/03 07:28:06;;;;;;;1.75;0.70;;;;;;;23.53;26.58;97861.19;5069247;28;20052;-67
2021/09/03 07:30:32;;;;;;;2.42;0.70;;;;;;;23.85;25.96;97866.06;5035991;28;20037;-67
2021/09/03 07:32:58;;;;;;;2.42;0.70;;;;;;;23.95;26.40;97861.34;5035813;28;20479;-67
2021/09/03 07:35:23;;;;;;;4.88;0.80;;;;;;;25.36;24.82;97870.47;5036149;28;20033;-67
2021/09/03 07:37:51;;;;;;;3.33;0.90;;;;;;;25.86;23.98;97873.16;5035946;28;20094;-67
2021/09/03 07:40:17;;;;;;;3.70;0.70;;;;;;;27.85;21.66;97857.47;5052768;28;20060;-68
2021/09/03 07:42:43;;;;;;;1.13;0.60;;;;;;;27.96;21.07;97842.47;5035704;28;20098;-68
2021/09/03 07:45:09;;;;;;;2.40;1.38;;;;;;;27.06;21.36;97847.41;5069405;28;20032;-68
2021/09/03 07:47:35;;;;;;;1.55;0.85;;;;;;;26.41;22.53;97841.41;5035713;28;20052;-68
2021/09/03 07:50:01;;;;;;;2.33;0.98;;;;;;;25.95;23.03;97833.31;5035835;28;20653;-66
2021/09/03 07:52:27;;;;;;;1.77;1.00;;;;;;;25.06;24.35;97822.00;5035972;28;20500;-68
2021/09/03 07:54:52;;;;;;;1.45;0.88;;;;;;;24.85;24.63;97829.66;5051979;28;20040;-67
2021/09/03 07:57:18;;;;;;;3.25;0.98;;;;;;;25.00;24.03;97826.72;5035745;28;20044;-67
2021/09/03 07:59:44;;;;;;;1.63;0.70;;;;;;;24.27;24.87;97817.34;5035466;28;20037;-67
2021/09/03 08:02:10;;;;;;;4.80;0.82;;;;;;;23.72;25.53;97810.63;5052189;28;20047;-67
2021/09/03 08:04:36;;;;;;;1.00;0.80;;;;;;;24.13;25.08;97784.69;5035240;28;20050;-67
2021/09/03 08:07:02;;;;;;;1.33;0.70;;;;;;;22.94;26.52;97815.28;5035256;28;20087;-67
2021/09/03 08:09:27;;;;;;;3.53;0.80;;;;;;;22.84;27.50;97801.00;5069073;28;20499;-66
2021/09/03 08:11:53;;;;;;;6.88;0.88;;;;;;;23.56;26.84;97779.31;5052124;28;20036;-66
2021/09/03 08:14:19;;;;;;;13.88;9.10;;;;;;;23.38;26.72;97807.13;5068753;28;20044;-66
2021/09/03 08:16:45;;;;;;;3.45;0.80;;;;;;;23.85;26.01;97793.66;5018526;28;20049;-67
2021/09/03 08:19:10;;;;;;;1.77;0.75;;;;;;;22.88;27.03;97789.34;5052063;28;20037;-66
2021/09/03 08:21:36;;;;;;;3.42;1.17;;;;;;;22.28;29.03;97775.34;5035175;28;20044;-66
2021/09/03 08:24:02;;;;;;;3.97;0.80;;;;;;;22.08;29.71;97792.44;5034945;28;20036;-66
2021/09/03 08:26:28;;;;;;;1.10;0.65;;;;;;;21.80;30.16;97789.56;5052004;28;20052;-65
2021/09/03 08:28:54;;;;;;;1.60;1.00;;;;;;;21.45;31.83;97793.09;5068385;28;20036;-66
2021/09/03 08:31:20;;;;;;;3.53;0.80;;;;;;;21.36;32.26;97754.22;5018811;28;20033;-66
2021/09/03 08:33:45;;;;;;;4.75;0.80;;;;;;;21.08;33.26;97784.50;5051712;28;20561;-66
2021/09/03 08:36:11;;;;;;;6.25;1.00;;;;;;;20.89;35.22;97788.75;5068294;28;20040;-66
2021/09/03 08:38:37;;;;;;;4.50;1.10;;;;;;;21.09;34.73;97808.53;5069229;28;20572;-66
2021/09/03 08:41:03;;;;;;;3.53;1.00;;;;;;;21.35;34.49;97798.53;5051196;28;20416;-66
2021/09/03 08:43:29;;;;;;;3.10;0.98;;;;;;;21.81;34.13;97808.22;5035221;28;20040;-66
2021/09/03 08:45:55;;;;;;;2.67;0.90;;;;;;;21.81;33.56;97799.28;5071473;28;20135;-66
2021/09/03 08:48:23;;;;;;;2.95;1.08;;;;;;;21.93;34.09;97791.69;5055232;28;20059;-66
2021/09/03 08:50:51;;;;;;;1.38;0.82;;;;;;;21.24;35.16;97772.59;5071652;28;20040;-66
2021/09/03 08:53:20;;;;;;;2.25;1.20;;;;;;;21.75;34.97;97795.78;5071735;28;20078;-66
2021/09/03 08:55:47;;;;;;;3.30;1.20;;;;;;;22.12;34.37;97774.59;5054889;28;20041;-66
2021/09/03 08:58:13;;;;;;;2.88;1.00;;;;;;;21.95;34.50;97771.41;5022151;28;20170;-66
2021/09/03 09:00:39;;;;;;;2.78;1.20;;;;;;;21.88;34.55;97787.09;5054607;28;20044;-66
2021/09/03 09:03:13;;;;;;;1.67;1.10;;;;;;;22.00;34.37;97776.81;5037796;28;20467;-66
2021/09/03 09:05:56;;;;;;;1.90;0.90;;;;;;;21.34;34.27;97788.81;5071569;28;20102;-67
2021/09/03 09:08:24;;;;;;;2.15;0.80;;;;;;;21.41;34.91;97768.53;5038055;28;20040;-66
2021/09/03 09:10:54;;;;;;;3.47;0.80;;;;;;;22.19;33.40;97766.19;5054540;28;20055;-67
2021/09/03 09:13:28;;;;;;;1.33;0.90;;;;;;;22.32;32.90;97749.34;5054656;28;20076;-66
2021/09/03 09:15:59;;;;;;;1.33;0.90;;;;;;;22.09;33.88;97771.63;5038166;28;20102;-68
2021/09/03 09:18:42;;;;;;;2.92;0.90;;;;;;;21.91;33.70;97789.25;5055004;28;20047;-67
2021/09/03 09:21:08;;;;;;;4.00;1.38;;;;;;;21.57;34.43;97769.34;5054562;28;20079;-66
2021/09/03 09:23:48;;;;;;;0.90;0.80;;;;;;;22.56;33.31;97775.47;5021591;28;20059;-66
2021/09/03 09:26:15;;;;;;;2.85;1.02;;;;;;;21.18;34.47;97784.47;5038014;28;20106;-67
2021/09/03 09:28:42;;;;;;;1.92;1.00;;;;;;;21.74;34.14;97777.94;5071211;28;20041;-66
2021/09/03 09:31:08;;;;;;;5.03;4.00;;;;;;;21.85;33.53;97768.72;5053945;28;20047;-66
2021/09/03 09:33:34;;;;;;;3.55;1.10;;;;;;;21.55;33.87;97775.00;5054108;28;20051;-67
2021/09/03 09:36:01;;;;;;;1.13;0.90;;;;;;;21.72;33.57;97742.28;5070607;28;20466;-67
2021/09/03 09:38:33;;;;;;;3.35;0.77;;;;;;;21.76;33.45;97764.19;5070310;28;20095;-66
2021/09/03 09:41:01;;;;;;;1.17;0.90;;;;;;;21.89;33.38;97748.19;5053697;28;20055;-67
2021/09/03 09:43:44;;;;;;;1.80;1.05;;;;;;;21.33;34.37;97746.66;5053522;28;20055;-67
2021/09/03 09:46:22;;;;;;;2.38;0.80;;;;;;;21.51;34.03;97724.50;5071499;28;20415;-67
2021/09/03 09:48:51;;;;;;;3.20;1.40;;;;;;;22.16;33.67;97747.78;5053473;28;20052;-67
2021/09/03 09:51:42;;;;;;;1.52;0.98;;;;;;;22.49;32.78;97749.78;5053955;28;20045;-67
2021/09/03 09:54:12;;;;;;;;;;;;;;;21.46;34.35;97746.13;5021367;28;20040;-68
2021/09/03 09:56:45;;;;;;;1.50;0.90;;;;;;;21.29;34.87;97738.31;5036811;28;20318;-66
2021/09/03 09:59:14;;;;;;;3.03;1.00;;;;;;;21.83;34.18;97727.69;5053232;28;20143;-66
2021/09/03 10:01:41;;;;;;;2.53;1.10;;;;;;;20.99;35.34;97722.13;5053661;28;20460;-67
2021/09/03 10:04:13;;;;;;;1.35;0.80;;;;;;;21.53;34.59;97719.63;5052985;28;20139;-67
2021/09/03 10:06:40;;;;;;;6.13;1.20;;;;;;;21.35;34.88;97721.03;5053134;28;20041;-66
2021/09/03 10:09:09;;;;;;;4.15;1.00;;;;;;;21.55;34.87;97733.66;5069458;28;20037;-65
2021/09/03 10:11:40;;;;;;;2.58;1.27;;;;;;;21.89;34.34;97731.16;5070334;28;20074;-66
2021/09/03 10:14:07;;;;;;;3.35;1.13;;;;;;;21.20;35.39;97755.34;5053438;28;20064;-66
2021/09/03 10:16:33;;;;;;;2.95;1.25;;;;;;;21.58;34.56;97735.81;5052639;28;20044;-66
2021/09/03 10:19:02;;;;;;;3.08;0.90;;;;;;;21.86;34.19;97743.34;5053064;28;20559;-66
2021/09/03 10:21:29;;;;;;;5.13;1.30;;;;;;;21.28;34.90;97725.88;5052506;28;20109;-66
2021/09/03 10:23:56;;;;;;;1.85;0.90;;;;;;;21.60;34.97;97753.38;5068216;28;20071;-70
2021/09/03 10:26:29;;;;;;;2.70;1.20;;;;;;;21.79;34.69;97737.41;5067072;28;20056;-70
2021/09/03 10:29:20;;;;;;;3.80;1.10;;;;;;;21.39;34.88;97732.06;5050168;28;20056;-70
2021/09/03 10:32:08;;;;;;;3.58;1.30;;;;;;;21.44;35.66;97726.66;5033937;28;20102;-70
2021/09/03 10:37:14;;;;;;;3.90;1.20;;;;;;;21.81;34.52;97683.91;5050597;28;20036;-71
2021/09/03 10:39:48;;;;;;;4.65;1.30;;;;;;;21.73;34.97;97724.97;5034065;28;20051;-70
2021/09/03 10:42:43;;;;;;;2.72;1.23;;;;;;;21.85;34.30;97713.88;5069488;28;20040;-71
2021/09/03 10:45:25;;;;;;;2.25;1.45;;;;;;;22.17;34.58;97728.59;5035990;28;20101;-71
2021/09/03 10:47:57;;;;;;;2.65;1.50;;;;;;;22.23;34.37;97734.78;5035798;28;20044;-71
2021/09/03 10:50:26;;;;;;;6.90;1.60;;;;;;;21.61;35.12;97709.06;5035851;28;20045;-70
2021/09/03 10:53:28;;;;;;;2.10;1.50;;;;;;;22.01;35.26;97705.44;5051267;28;20044;-71
2021/09/03 10:56:13;;;;;;;2.78;1.80;;;;;;;20.15;38.05;97717.41;5052563;28;20094;-70
2021/09/03 10:59:02;;;;;;;2.78;1.70;;;;;;;21.03;37.36;97695.41;5019272;28;20040;-69
2021/09/03 11:01:32;;;;;;;3.17;1.48;;;;;;;21.17;37.23;97694.56;5035657;28;20450;-70
2021/09/03 11:04:11;;;;;;;5.55;1.80;;;;;;;21.31;36.20;97660.53;5035355;28;20473;-69
2021/09/03 11:06:40;;;;;;;2.50;1.60;;;;;;;21.29;35.94;97695.13;5069273;28;20048;-69
2021/09/03 11:09:25;;;;;;;11.52;1.98;;;;;;;21.52;35.93;97664.00;5035291;28;20489;-69
2021/09/03 11:11:52;;;;;;;3.03;1.50;;;;;;;21.19;37.04;97688.91;5051686;28;20094;-69
2021/09/03 11:14:29;;;;;;;3.88;1.92;;;;;;;21.98;35.01;97667.31;5035234;28;20047;-69
2021/09/03 11:17:05;;;;;;;5.78;1.70;;;;;;;21.64;35.53;97672.59;5018469;28;20047;-69
2021/09/03 11:19:48;;;;;;;5.18;1.92;;;;;;;22.27;34.58;97679.88;5018905;28;20044;-69
2021/09/03 11:22:19;;;;;;;4.07;1.90;;;;;;;22.35;34.83;97678.47;5068541;28;20123;-70
2021/09/03 11:24:52;;;;;;;3.17;1.77;;;;;;;22.45;34.09;97675.72;5034968;28;20048;-69
2021/09/03 11:27:26;;;;;;;4.53;1.98;;;;;;;22.02;35.21;97671.91;5068301;28;20466;-69
2021/09/03 11:30:01;;;;;;;5.60;2.15;;;;;;;21.86;35.49;97667.66;5051932;28;20066;-70
2021/09/03 11:32:38;;;;;;;4.97;2.00;;;;;;;22.24;35.04;97683.13;5068542;28;20044;-69
2021/09/03 11:35:09;;;;;;;5.35;2.15;;;;;;;22.52;34.48;97673.50;5035310;28;20163;-70
2021/09/03 11:37:42;;;;;;;4.07;1.98;;;;;;;21.98;35.09;97654.63;5035368;28;20514;-69
2021/09/03 11:40:22;;;;;;;3.20;2.08;;;;;;;22.52;33.92;97639.16;5068465;28;20586;-69